createdAt,value
2023-10-09T00:00:58.503Z,96907.19
2023-10-09T00:02:00.086Z,96903.72
2023-10-09T00:03:01.733Z,96900.53
2023-10-09T00:04:03.448Z,96906.13
2023-10-09T00:05:04.961Z,96903.47
2023-10-09T00:06:06.638Z,96900.28
2023-10-09T00:07:10.552Z,96889.94
2023-10-09T00:08:12.189Z,96894.16
2023-10-09T00:09:13.687Z,96896.28
2023-10-09T00:10:15.249Z,96892.06
2023-10-09T00:11:17.068Z,96893.09
2023-10-09T00:12:18.741Z,96886.22
2023-10-09T00:13:20.325Z,96884.59
2023-10-09T00:14:22.065Z,96884.59
2023-10-09T00:15:23.625Z,96882.25
2023-10-09T00:16:25.187Z,96875.31
2023-10-09T00:17:26.641Z,96876.38
2023-10-09T00:18:29.243Z,96875.81
2023-10-09T00:19:30.792Z,96871.59
2023-10-09T00:20:32.268Z,96879.53
2023-10-09T00:21:34.098Z,96879.00
2023-10-09T00:22:35.603Z,96871.84
2023-10-09T00:23:37.079Z,96870.28
2023-10-09T00:24:38.589Z,96870.53
2023-10-09T00:25:40.215Z,96870.53
2023-10-09T00:26:41.826Z,96874.22
2023-10-09T00:27:43.307Z,96870.00
2023-10-09T00:28:44.890Z,96868.38
2023-10-09T00:29:46.455Z,96866.03
2023-10-09T00:30:47.946Z,96869.47
2023-10-09T00:31:49.475Z,96873.16
2023-10-09T00:32:51.061Z,96867.31
2023-10-09T00:33:52.606Z,96859.38
2023-10-09T00:34:54.121Z,96869.19
2023-10-09T00:35:56.423Z,96864.38
2023-10-09T00:36:58.286Z,96866.25
2023-10-09T00:37:59.824Z,96857.53
2023-10-09T00:39:01.434Z,96859.38
2023-10-09T00:40:02.906Z,96856.97
2023-10-09T00:41:04.704Z,96853.53
2023-10-09T00:42:06.251Z,96850.06
2023-10-09T00:43:07.795Z,96849.53
2023-10-09T00:44:09.333Z,96848.75
2023-10-09T00:45:10.858Z,96844.53
2023-10-09T00:46:13.410Z,96846.38
2023-10-09T00:47:15.004Z,96845.56
2023-10-09T00:48:16.598Z,96844.00
2023-10-09T00:49:18.729Z,96847.69
2023-10-09T00:50:20.191Z,96840.81
2023-10-09T00:51:21.694Z,96852.44
2023-10-09T00:52:23.172Z,96844.50
2023-10-09T00:53:24.755Z,96842.13
2023-10-09T00:54:26.238Z,96843.97
2023-10-09T00:55:27.708Z,96840.53
2023-10-09T00:56:29.183Z,96838.94
2023-10-09T00:57:30.989Z,96833.88
2023-10-09T00:58:33.343Z,96836.53
2023-10-09T00:59:34.822Z,96834.16
2023-10-09T01:00:36.295Z,96833.34
2023-10-09T01:01:37.922Z,96834.16
2023-10-09T01:02:39.514Z,96835.22
2023-10-09T01:03:41.554Z,96843.94
2023-10-09T01:04:43.230Z,96841.59
2023-10-09T01:05:44.728Z,96842.38
2023-10-09T01:06:46.211Z,96838.13
2023-10-09T01:07:47.715Z,96827.53
2023-10-09T01:08:50.854Z,96829.38
2023-10-09T01:09:52.327Z,96828.59
2023-10-09T01:10:53.861Z,96818.00
2023-10-09T01:11:55.445Z,96815.34
2023-10-09T01:12:56.937Z,96815.34
2023-10-09T01:13:58.450Z,96806.63
2023-10-09T01:14:59.913Z,96810.84
2023-10-09T01:16:01.691Z,96809.28
2023-10-09T01:17:03.186Z,96808.47
2023-10-09T01:18:04.884Z,96806.88
2023-10-09T01:19:08.657Z,96808.47
2023-10-09T01:20:10.162Z,96809.28
2023-10-09T01:21:12.044Z,96803.16
2023-10-09T01:22:13.686Z,96802.38
2023-10-09T01:23:18.330Z,96790.22
2023-10-09T01:24:19.868Z,96796.03
2023-10-09T01:25:21.717Z,96795.22
2023-10-09T01:26:23.508Z,96794.44
2023-10-09T01:27:25.368Z,96791.78
2023-10-09T01:28:26.889Z,96789.91
2023-10-09T01:29:28.582Z,96788.09
2023-10-09T01:30:30.140Z,96793.38
2023-10-09T01:31:31.892Z,96784.63
2023-10-09T01:32:33.433Z,96786.47
2023-10-09T01:33:34.944Z,96786.22
2023-10-09T01:34:36.483Z,96778.28
2023-10-09T01:35:38.254Z,96778.53
2023-10-09T01:36:40.025Z,96777.50
2023-10-09T01:37:41.501Z,96778.28
2023-10-09T01:38:42.947Z,96779.31
2023-10-09T01:39:44.452Z,96777.50
2023-10-09T01:40:45.965Z,96773.00
2023-10-09T01:41:47.453Z,96776.44
2023-10-09T01:42:48.941Z,96768.47
2023-10-09T01:43:50.406Z,96774.56
2023-10-09T01:44:51.986Z,96771.91
2023-10-09T01:45:53.598Z,96766.63
2023-10-09T01:46:58.269Z,96770.88
2023-10-09T01:48:00.064Z,96768.22
2023-10-09T01:49:01.646Z,96762.16
2023-10-09T01:50:03.302Z,96768.22
2023-10-09T01:51:04.832Z,96763.72
2023-10-09T01:52:06.555Z,96765.59
2023-10-09T01:53:07.985Z,96763.72
2023-10-09T01:54:09.528Z,96775.91
2023-10-09T01:55:11.034Z,96760.81
2023-10-09T01:56:12.520Z,96759.75
2023-10-09T01:57:14.051Z,96758.97
2023-10-09T01:58:15.624Z,96758.16
2023-10-09T01:59:17.143Z,96766.91
2023-10-09T02:00:18.664Z,96767.69
2023-10-09T02:01:20.466Z,96765.03
2023-10-09T02:02:21.966Z,96757.63
2023-10-09T02:03:23.815Z,96760.28
2023-10-09T02:04:25.404Z,96767.19
2023-10-09T02:05:27.056Z,96761.88
2023-10-09T02:06:28.605Z,96755.53
2023-10-09T02:07:30.098Z,96753.69
2023-10-09T02:08:31.627Z,96761.63
2023-10-09T02:09:37.696Z,96760.56
2023-10-09T02:10:39.235Z,96756.06
2023-10-09T02:11:40.763Z,96753.44
2023-10-09T02:12:42.237Z,96752.59
2023-10-09T02:13:43.708Z,96746.53
2023-10-09T02:14:45.520Z,96749.69
2023-10-09T02:15:47.564Z,96744.41
2023-10-09T02:16:49.393Z,96745.19
2023-10-09T02:17:50.874Z,96746.25
2023-10-09T02:18:52.470Z,96741.75
2023-10-09T02:19:54.147Z,96744.16
2023-10-09T02:20:55.633Z,96747.59
2023-10-09T02:21:57.175Z,96742.28
2023-10-09T02:22:58.618Z,96741.50
2023-10-09T02:24:00.160Z,96750.22
2023-10-09T02:25:01.679Z,96748.38
2023-10-09T02:26:03.154Z,96750.75
2023-10-09T02:27:04.743Z,96742.03
2023-10-09T02:28:06.240Z,96742.81
2023-10-09T02:29:07.688Z,96749.72
2023-10-09T02:30:09.237Z,96734.88
2023-10-09T02:31:10.766Z,96742.56
2023-10-09T02:32:12.387Z,96739.13
2023-10-09T02:33:13.909Z,96745.22
2023-10-09T02:34:15.581Z,96745.22
2023-10-09T02:35:17.216Z,96735.66
2023-10-09T02:36:18.745Z,96730.09
2023-10-09T02:37:21.524Z,96730.09
2023-10-09T02:38:22.983Z,96732.75
2023-10-09T02:39:25.169Z,96737.00
2023-10-09T02:40:26.849Z,96724.03
2023-10-09T02:41:28.321Z,96739.66
2023-10-09T02:42:29.860Z,96739.66
2023-10-09T02:43:31.382Z,96733.28
2023-10-09T02:44:33.059Z,96733.28
2023-10-09T02:45:34.642Z,96732.50
2023-10-09T02:46:36.164Z,96734.06
2023-10-09T02:47:37.744Z,96732.25
2023-10-09T02:48:39.266Z,96728.00
2023-10-09T02:49:40.753Z,96734.06
2023-10-09T02:50:42.224Z,96731.44
2023-10-09T02:51:43.726Z,96721.66
2023-10-09T02:52:45.233Z,96724.28
2023-10-09T02:53:46.707Z,96719.00
2023-10-09T02:54:48.145Z,96720.56
2023-10-09T02:55:49.591Z,96719.53
2023-10-09T02:56:51.128Z,96719.53
2023-10-09T02:57:52.640Z,96716.88
2023-10-09T02:58:54.112Z,96708.13
2023-10-09T02:59:55.620Z,96709.97
2023-10-09T03:00:57.221Z,96707.06
2023-10-09T03:01:58.705Z,96707.84
2023-10-09T03:03:00.283Z,96702.56
2023-10-09T03:04:01.957Z,96703.09
2023-10-09T03:05:03.582Z,96707.84
2023-10-09T03:06:05.116Z,96706.03
2023-10-09T03:07:06.661Z,96703.38
2023-10-09T03:08:08.143Z,96695.44
2023-10-09T03:09:09.641Z,96706.81
2023-10-09T03:10:11.261Z,96700.72
2023-10-09T03:11:12.733Z,96690.91
2023-10-09T03:12:14.321Z,96691.69
2023-10-09T03:13:16.004Z,96695.13
2023-10-09T03:14:17.472Z,96692.78
2023-10-09T03:15:19.050Z,96695.13
2023-10-09T03:16:22.311Z,96687.19
2023-10-09T03:17:24.165Z,96685.38
2023-10-09T03:18:25.761Z,96689.06
2023-10-09T03:19:27.293Z,96685.38
2023-10-09T03:20:28.777Z,96695.13
2023-10-09T03:21:30.310Z,96684.53
2023-10-09T03:22:31.854Z,96686.94
2023-10-09T03:23:33.346Z,96689.59
2023-10-09T03:24:34.893Z,96688.78
2023-10-09T03:25:36.398Z,96691.44
2023-10-09T03:26:41.062Z,96689.59
2023-10-09T03:27:42.523Z,96679.00
2023-10-09T03:28:44.019Z,96685.06
2023-10-09T03:29:45.494Z,96684.28
2023-10-09T03:30:47.011Z,96683.25
2023-10-09T03:31:48.580Z,96681.63
2023-10-09T03:32:50.083Z,96682.41
2023-10-09T03:33:51.660Z,96681.38
2023-10-09T03:34:53.192Z,96684.81
2023-10-09T03:35:54.705Z,96678.72
2023-10-09T03:36:56.175Z,96679.50
2023-10-09T03:37:57.619Z,96686.69
2023-10-09T03:38:59.207Z,96692.75
2023-10-09T03:40:00.946Z,96682.94
2023-10-09T03:41:02.823Z,96686.41
2023-10-09T03:42:04.317Z,96682.69
2023-10-09T03:43:05.831Z,96688.00
2023-10-09T03:44:07.312Z,96681.91
2023-10-09T03:45:08.804Z,96687.19
2023-10-09T03:46:10.340Z,96694.06
2023-10-09T03:47:11.833Z,96692.25
2023-10-09T03:48:13.362Z,96699.38
2023-10-09T03:49:14.924Z,96693.81
2023-10-09T03:50:16.374Z,96698.31
2023-10-09T03:51:17.878Z,96695.69
2023-10-09T03:52:19.415Z,96693.81
2023-10-09T03:53:20.872Z,96691.94
2023-10-09T03:54:22.411Z,96689.31
2023-10-09T03:55:28.044Z,96688.53
2023-10-09T03:56:29.535Z,96691.16
2023-10-09T03:57:31.112Z,96695.41
2023-10-09T03:58:32.605Z,96690.91
2023-10-09T03:59:34.112Z,96682.16
2023-10-09T04:00:35.650Z,96684.00
2023-10-09T04:01:37.173Z,96680.31
2023-10-09T04:02:38.711Z,96689.84
2023-10-09T04:03:40.340Z,96685.59
2023-10-09T04:04:41.978Z,96684.53
2023-10-09T04:05:43.504Z,96684.53
2023-10-09T04:06:44.953Z,96684.53
2023-10-09T04:07:47.112Z,96678.44
2023-10-09T04:08:48.563Z,96677.41
2023-10-09T04:09:50.062Z,96679.22
2023-10-09T04:10:52.488Z,96680.84
2023-10-09T04:11:55.730Z,96675.53
2023-10-09T04:12:57.187Z,96678.19
2023-10-09T04:13:58.659Z,96680.06
2023-10-09T04:15:00.225Z,96676.59
2023-10-09T04:16:01.767Z,96678.19
2023-10-09T04:17:03.255Z,96678.97
2023-10-09T04:18:04.795Z,96680.84
2023-10-09T04:19:06.440Z,96681.63
2023-10-09T04:20:07.967Z,96677.41
2023-10-09T04:21:09.467Z,96679.22
2023-10-09T04:22:11.062Z,96675.81
2023-10-09T04:23:12.558Z,96679.22
2023-10-09T04:24:14.246Z,96677.66
2023-10-09T04:25:16.071Z,96672.38
2023-10-09T04:26:17.593Z,96671.56
2023-10-09T04:27:19.142Z,96673.16
2023-10-09T04:28:21.202Z,96668.94
2023-10-09T04:29:22.923Z,96664.41
2023-10-09T04:30:24.854Z,96668.94
2023-10-09T04:31:26.552Z,96668.09
2023-10-09T04:32:28.063Z,96663.63
2023-10-09T04:33:29.814Z,96664.69
2023-10-09T04:34:31.516Z,96655.94
2023-10-09T04:35:35.752Z,96659.38
2023-10-09T04:36:37.274Z,96649.56
2023-10-09T04:37:38.843Z,96649.84
2023-10-09T04:38:40.428Z,96647.22
2023-10-09T04:39:41.955Z,96639.25
2023-10-09T04:40:43.678Z,96646.38
2023-10-09T04:41:45.409Z,96648.25
2023-10-09T04:42:46.875Z,96635.78
2023-10-09T04:43:48.329Z,96642.16
2023-10-09T04:44:49.810Z,96634.22
2023-10-09T04:45:51.330Z,96636.88
2023-10-09T04:46:52.797Z,96632.63
2023-10-09T04:47:54.286Z,96626.28
2023-10-09T04:48:55.841Z,96631.56
2023-10-09T04:49:57.310Z,96622.03
2023-10-09T04:50:58.888Z,96623.63
2023-10-09T04:52:00.425Z,96629.97
2023-10-09T04:53:01.924Z,96622.84
2023-10-09T04:54:03.441Z,96624.66
2023-10-09T04:55:04.924Z,96631.56
2023-10-09T04:56:06.422Z,96623.88
2023-10-09T04:57:07.966Z,96625.75
2023-10-09T04:58:09.541Z,96626.53
2023-10-09T04:59:11.026Z,96622.31
2023-10-09T05:00:12.602Z,96623.09
2023-10-09T05:01:14.292Z,96619.66
2023-10-09T05:02:15.874Z,96622.31
2023-10-09T05:03:17.528Z,96613.56
2023-10-09T05:04:21.081Z,96620.72
2023-10-09T05:05:22.735Z,96621.50
2023-10-09T05:06:24.338Z,96627.88
2023-10-09T05:07:25.830Z,96617.28
2023-10-09T05:08:27.291Z,96622.84
2023-10-09T05:09:28.788Z,96626.00
2023-10-09T05:10:30.290Z,96621.78
2023-10-09T05:11:31.809Z,96620.97
2023-10-09T05:12:33.324Z,96617.28
2023-10-09T05:13:34.797Z,96615.69
2023-10-09T05:14:36.239Z,96604.28
2023-10-09T05:15:37.742Z,96602.72
2023-10-09T05:16:39.323Z,96616.75
2023-10-09T05:17:41.056Z,96605.63
2023-10-09T05:18:42.794Z,96595.56
2023-10-09T05:19:44.301Z,96606.41
2023-10-09T05:20:45.774Z,96600.34
2023-10-09T05:21:47.289Z,96601.91
2023-10-09T05:22:48.802Z,96603.78
2023-10-09T05:23:50.299Z,96604.81
2023-10-09T05:24:51.779Z,96606.41
2023-10-09T05:25:53.313Z,96605.63
2023-10-09T05:26:54.825Z,96598.72
2023-10-09T05:27:56.282Z,96600.59
2023-10-09T05:28:57.748Z,96603.25
2023-10-09T05:29:59.250Z,96601.38
2023-10-09T05:31:00.742Z,96601.63
2023-10-09T05:32:02.302Z,96604.28
2023-10-09T05:33:06.975Z,96601.63
2023-10-09T05:34:08.473Z,96595.56
2023-10-09T05:35:09.972Z,96593.97
2023-10-09T05:36:11.478Z,96596.63
2023-10-09T05:37:12.998Z,96590.53
2023-10-09T05:38:14.445Z,96606.41
2023-10-09T05:39:16.168Z,96594.25
2023-10-09T05:40:18.013Z,96604.84
2023-10-09T05:41:19.596Z,96604.06
2023-10-09T05:42:21.174Z,96605.88
2023-10-09T05:43:22.652Z,96606.69
2023-10-09T05:44:24.122Z,96609.34
2023-10-09T05:45:25.640Z,96604.31
2023-10-09T05:46:27.166Z,96609.63
2023-10-09T05:47:28.697Z,96614.13
2023-10-09T05:48:30.207Z,96611.47
2023-10-09T05:49:31.735Z,96612.53
2023-10-09T05:50:33.203Z,96617.03
2023-10-09T05:51:34.669Z,96614.38
2023-10-09T05:52:36.289Z,96623.13
2023-10-09T05:53:37.800Z,96624.19
2023-10-09T05:54:39.348Z,96629.47
2023-10-09T05:55:40.891Z,96624.97
2023-10-09T05:56:42.384Z,96633.19
2023-10-09T05:57:43.942Z,96641.13
2023-10-09T05:58:45.449Z,96644.03
2023-10-09T05:59:46.948Z,96642.97
2023-10-09T06:00:48.437Z,96642.97
2023-10-09T06:01:50.010Z,96646.69
2023-10-09T06:02:59.749Z,96642.19
2023-10-09T06:04:03.967Z,96636.91
2023-10-09T06:05:05.692Z,96634.25
2023-10-09T06:06:07.188Z,96635.28
2023-10-09T06:07:08.674Z,96637.94
2023-10-09T06:08:10.204Z,96636.91
2023-10-09T06:09:11.873Z,96642.19
2023-10-09T06:10:13.399Z,96631.59
2023-10-09T06:11:14.897Z,96637.69
2023-10-09T06:12:16.399Z,96637.69
2023-10-09T06:13:17.998Z,96644.84
2023-10-09T06:14:19.505Z,96649.06
2023-10-09T06:15:23.925Z,96649.84
2023-10-09T06:16:25.550Z,96661.25
2023-10-09T06:17:27.031Z,96653.31
2023-10-09T06:18:28.653Z,96652.25
2023-10-09T06:19:30.139Z,96649.59
2023-10-09T06:20:31.619Z,96650.66
2023-10-09T06:21:33.142Z,96657.53
2023-10-09T06:22:34.790Z,96656.50
2023-10-09T06:23:36.295Z,96659.16
2023-10-09T06:24:39.638Z,96651.97
2023-10-09T06:25:42.350Z,96662.56
2023-10-09T06:26:43.816Z,96657.28
2023-10-09T06:27:45.329Z,96661.50
2023-10-09T06:28:46.850Z,96664.97
2023-10-09T06:29:48.299Z,96663.09
2023-10-09T06:30:49.840Z,96665.75
2023-10-09T06:31:51.921Z,96663.38
2023-10-09T06:32:54.373Z,96660.97
2023-10-09T06:33:55.924Z,96666.28
2023-10-09T06:34:57.415Z,96659.91
2023-10-09T06:35:58.888Z,96659.66
2023-10-09T06:37:00.373Z,96665.72
2023-10-09T06:38:01.834Z,96655.13
2023-10-09T06:39:03.463Z,96658.59
2023-10-09T06:40:04.995Z,96651.44
2023-10-09T06:41:06.493Z,96657.53
2023-10-09T06:42:08.003Z,96658.34
2023-10-09T06:43:09.534Z,96660.69
2023-10-09T06:44:11.131Z,96653.56
2023-10-09T06:45:12.645Z,96652.50
2023-10-09T06:46:14.178Z,96659.41
2023-10-09T06:47:15.653Z,96663.63
2023-10-09T06:48:17.271Z,96662.56
2023-10-09T06:49:18.777Z,96668.66
2023-10-09T06:50:20.238Z,96664.94
2023-10-09T06:51:21.750Z,96664.69
2023-10-09T06:52:23.242Z,96659.13
2023-10-09T06:53:27.341Z,96670.25
2023-10-09T06:54:29.381Z,96662.03
2023-10-09T06:55:30.894Z,96676.84
2023-10-09T06:56:32.569Z,96683.53
2023-10-09T06:57:34.248Z,96677.16
2023-10-09T06:58:35.739Z,96679.53
2023-10-09T06:59:37.248Z,96678.47
2023-10-09T07:00:38.757Z,96683.50
2023-10-09T07:01:40.374Z,96681.91
2023-10-09T07:02:42.012Z,96682.44
2023-10-09T07:03:43.590Z,96684.03
2023-10-09T07:04:45.214Z,96687.47
2023-10-09T07:05:46.832Z,96681.66
2023-10-09T07:06:48.337Z,96692.47
2023-10-09T07:07:49.797Z,96689.56
2023-10-09T07:08:51.889Z,96682.94
2023-10-09T07:09:53.381Z,96687.72
2023-10-09T07:10:54.832Z,96690.09
2023-10-09T07:11:56.320Z,96688.75
2023-10-09T07:12:57.928Z,96684.75
2023-10-09T07:13:59.384Z,96686.91
2023-10-09T07:15:00.883Z,96686.34
2023-10-09T07:16:02.429Z,96687.69
2023-10-09T07:17:03.981Z,96683.69
2023-10-09T07:18:05.554Z,96682.34
2023-10-09T07:19:07.023Z,96688.16
2023-10-09T07:20:08.540Z,96693.72
2023-10-09T07:21:10.013Z,96695.84
2023-10-09T07:22:11.510Z,96687.34
2023-10-09T07:23:12.979Z,96700.88
2023-10-09T07:24:14.712Z,96696.88
2023-10-09T07:25:16.399Z,96691.31
2023-10-09T07:26:17.864Z,96696.88
2023-10-09T07:27:19.355Z,96692.06
2023-10-09T07:28:20.863Z,96689.69
2023-10-09T07:29:22.347Z,96692.84
2023-10-09T07:30:23.866Z,96691.50
2023-10-09T07:31:25.612Z,96696.28
2023-10-09T07:32:27.318Z,96691.50
2023-10-09T07:33:28.866Z,96684.09
2023-10-09T07:34:30.385Z,96688.06
2023-10-09T07:35:33.035Z,96694.66
2023-10-09T07:36:34.609Z,96686.16
2023-10-09T07:37:36.096Z,96695.44
2023-10-09T07:38:37.583Z,96686.13
2023-10-09T07:39:39.738Z,96694.34
2023-10-09T07:40:41.391Z,96694.88
2023-10-09T07:41:42.912Z,96710.25
2023-10-09T07:42:44.487Z,96697.50
2023-10-09T07:43:47.582Z,96698.81
2023-10-09T07:44:49.066Z,96700.63
2023-10-09T07:45:50.631Z,96706.75
2023-10-09T07:46:52.109Z,96712.28
2023-10-09T07:47:53.614Z,96715.47
2023-10-09T07:48:55.229Z,96719.19
2023-10-09T07:49:56.714Z,96717.84
2023-10-09T07:50:58.199Z,96711.16
2023-10-09T07:51:59.683Z,96712.47
2023-10-09T07:53:01.168Z,96713.00
2023-10-09T07:54:02.644Z,96708.19
2023-10-09T07:55:04.158Z,96709.53
2023-10-09T07:56:05.659Z,96708.97
2023-10-09T07:57:07.177Z,96711.09
2023-10-09T07:58:08.652Z,96704.41
2023-10-09T07:59:10.150Z,96704.16
2023-10-09T08:00:11.658Z,96707.56
2023-10-09T08:01:13.228Z,96710.72
2023-10-09T08:02:14.745Z,96699.53
2023-10-09T08:03:16.314Z,96703.53
2023-10-09T08:04:18.093Z,96704.81
2023-10-09T08:05:19.767Z,96709.59
2023-10-09T08:06:21.350Z,96704.81
2023-10-09T08:08:02.552Z,96699.72
2023-10-09T08:08:44.330Z,96706.88
2023-10-09T08:09:45.881Z,96706.59
2023-10-09T08:10:47.377Z,96704.44
2023-10-09T08:11:48.877Z,96707.34
2023-10-09T08:12:50.457Z,96709.72
2023-10-09T08:13:52.065Z,96704.66
2023-10-09T08:14:53.586Z,96710.22
2023-10-09T08:15:55.114Z,96714.16
2023-10-09T08:16:56.700Z,96718.13
2023-10-09T08:17:58.247Z,96716.75
2023-10-09T08:18:59.750Z,96719.66
2023-10-09T08:20:01.285Z,96714.59
2023-10-09T08:21:02.754Z,96717.75
2023-10-09T08:22:04.239Z,96716.13
2023-10-09T08:23:05.696Z,96712.09
2023-10-09T08:25:08.691Z,96712.84
2023-10-09T08:26:10.251Z,96716.53
2023-10-09T08:27:11.829Z,96717.84
2023-10-09T08:28:13.307Z,96722.59
2023-10-09T08:29:14.805Z,96724.69
2023-10-09T08:30:16.360Z,96720.41
2023-10-09T08:31:17.997Z,96717.97
2023-10-09T08:34:15.772Z,96720.06
2023-10-09T08:34:33.031Z,96713.91
2023-10-09T08:35:02.449Z,96717.31
2023-10-09T08:36:04.071Z,96713.31
2023-10-09T08:37:05.864Z,96721.81
2023-10-09T08:38:07.846Z,96720.16
2023-10-09T08:39:09.345Z,96720.34
2023-10-09T08:40:10.822Z,96723.25
2023-10-09T08:41:12.292Z,96724.25
2023-10-09T08:42:13.825Z,96718.38
2023-10-09T08:43:15.284Z,96723.94
2023-10-09T08:44:16.762Z,96720.69
2023-10-09T08:45:18.421Z,96722.53
2023-10-09T08:46:19.876Z,96722.72
2023-10-09T08:47:21.356Z,96726.38
2023-10-09T08:48:22.831Z,96724.75
2023-10-09T08:49:24.336Z,96727.63
2023-10-09T08:50:25.813Z,96730.50
2023-10-09T08:51:27.608Z,96733.41
2023-10-09T08:52:29.163Z,96736.28
2023-10-09T08:53:30.700Z,96746.34
2023-10-09T08:54:32.179Z,96745.78
2023-10-09T08:55:33.743Z,96750.28
2023-10-09T08:56:35.291Z,96747.06
2023-10-09T08:57:36.812Z,96744.59
2023-10-09T08:58:38.589Z,96744.81
2023-10-09T08:59:40.140Z,96745.81
2023-10-09T09:00:41.647Z,96749.50
2023-10-09T09:01:43.250Z,96745.47
2023-10-09T09:02:44.815Z,96752.59
2023-10-09T09:03:46.383Z,96747.47
2023-10-09T09:04:48.341Z,96743.16
2023-10-09T09:05:49.936Z,96755.59
2023-10-09T09:06:51.422Z,96751.56
2023-10-09T09:07:53.002Z,96751.00
2023-10-09T09:08:54.675Z,96745.88
2023-10-09T09:09:56.159Z,96749.56
2023-10-09T09:10:57.664Z,96748.94
2023-10-09T09:11:59.190Z,96748.88
2023-10-09T09:13:00.660Z,96750.97
2023-10-09T09:14:02.217Z,96749.31
2023-10-09T09:15:03.735Z,96746.84
2023-10-09T09:16:05.248Z,96749.75
2023-10-09T09:17:06.821Z,96755.00
2023-10-09T09:18:08.557Z,96755.22
2023-10-09T09:19:10.109Z,96752.75
2023-10-09T09:20:11.647Z,96751.38
2023-10-09T09:21:13.150Z,96742.50
2023-10-09T09:22:14.657Z,96746.94
2023-10-09T09:23:16.225Z,96746.34
2023-10-09T09:24:17.820Z,96746.25
2023-10-09T09:25:19.299Z,96741.94
2023-10-09T09:26:20.784Z,96742.13
2023-10-09T09:27:22.252Z,96742.31
2023-10-09T09:28:23.689Z,96749.16
2023-10-09T09:29:25.256Z,96738.69
2023-10-09T09:30:26.770Z,96745.00
2023-10-09T09:31:28.427Z,96739.59
2023-10-09T09:32:30.008Z,96734.41
2023-10-09T09:33:31.505Z,96732.75
2023-10-09T09:34:33.005Z,96733.78
2023-10-09T09:35:34.478Z,96733.97
2023-10-09T09:36:35.932Z,96732.28
2023-10-09T09:37:37.426Z,96735.63
2023-10-09T09:38:38.882Z,96734.75
2023-10-09T09:39:52.904Z,96734.94
2023-10-09T09:40:57.225Z,96742.84
2023-10-09T09:41:58.725Z,96736.09
2023-10-09T09:43:00.213Z,96739.75
2023-10-09T09:44:01.905Z,96752.25
2023-10-09T09:45:03.660Z,96753.50
2023-10-09T09:46:05.151Z,96749.44
2023-10-09T09:47:06.736Z,96751.25
2023-10-09T09:48:08.431Z,96742.13
2023-10-09T09:49:09.920Z,96738.53
2023-10-09T09:50:11.389Z,96738.72
2023-10-09T09:51:12.849Z,96749.63
2023-10-09T09:52:15.994Z,96749.81
2023-10-09T09:53:17.586Z,96745.72
2023-10-09T09:54:19.265Z,96752.88
2023-10-09T09:55:20.903Z,96747.22
2023-10-09T09:56:22.368Z,96755.44
2023-10-09T09:57:23.873Z,96755.94
2023-10-09T09:58:25.363Z,96754.53
2023-10-09T09:59:26.849Z,96761.16
2023-10-09T10:00:28.380Z,96762.44
2023-10-09T10:01:29.918Z,96761.03
2023-10-09T10:02:31.498Z,96763.13
2023-10-09T10:03:33.098Z,96756.38
2023-10-09T10:04:34.688Z,96764.09
2023-10-09T10:05:36.238Z,96763.81
2023-10-09T10:06:37.698Z,96760.81
2023-10-09T10:07:39.237Z,96761.00
2023-10-09T10:08:40.739Z,96756.13
2023-10-09T10:09:42.225Z,96767.00
2023-10-09T10:10:43.882Z,96759.47
2023-10-09T10:11:45.630Z,96760.44
2023-10-09T10:12:47.355Z,96759.03
2023-10-09T10:13:48.867Z,96759.22
2023-10-09T10:14:50.632Z,96764.28
2023-10-09T10:15:52.141Z,96768.22
2023-10-09T10:16:53.706Z,96762.28
2023-10-09T10:17:55.314Z,96768.91
2023-10-09T10:18:56.827Z,96758.69
2023-10-09T10:19:58.371Z,96761.84
2023-10-09T10:20:59.906Z,96767.41
2023-10-09T10:22:01.428Z,96765.22
2023-10-09T10:23:02.957Z,96761.13
2023-10-09T10:24:04.472Z,96761.94
2023-10-09T10:25:05.950Z,96758.63
2023-10-09T10:26:07.488Z,96772.50
2023-10-09T10:27:08.972Z,96766.84
2023-10-09T10:28:10.426Z,96771.91
2023-10-09T10:29:11.964Z,96765.44
2023-10-09T10:30:13.490Z,96759.00
2023-10-09T10:31:15.436Z,96764.84
2023-10-09T10:32:17.010Z,96759.97
2023-10-09T10:33:18.475Z,96769.56
2023-10-09T10:34:20.017Z,96764.19
2023-10-09T10:35:21.461Z,96761.22
2023-10-09T10:36:24.612Z,96753.97
2023-10-09T10:37:26.658Z,96760.16
2023-10-09T10:38:28.120Z,96762.81
2023-10-09T10:39:29.623Z,96765.16
2023-10-09T10:40:31.121Z,96759.81
2023-10-09T10:41:32.648Z,96758.72
2023-10-09T10:42:34.142Z,96749.59
2023-10-09T10:43:35.702Z,96758.44
2023-10-09T10:44:37.621Z,96758.09
2023-10-09T10:45:39.415Z,96770.69
2023-10-09T10:46:41.032Z,96766.94
2023-10-09T10:47:42.590Z,96767.25
2023-10-09T10:48:44.096Z,96760.00
2023-10-09T10:49:47.013Z,96763.78
2023-10-09T10:50:48.510Z,96766.94
2023-10-09T10:51:50.026Z,96760.78
2023-10-09T10:52:51.549Z,96750.88
2023-10-09T10:53:53.129Z,96750.06
2023-10-09T10:54:54.719Z,96748.69
2023-10-09T10:55:56.291Z,96755.91
2023-10-09T10:56:57.843Z,96758.28
2023-10-09T10:57:59.335Z,96754.81
2023-10-09T10:59:00.872Z,96741.44
2023-10-09T11:00:02.411Z,96742.22
2023-10-09T11:01:03.885Z,96738.75
2023-10-09T11:02:05.428Z,96741.44
2023-10-09T11:03:07.174Z,96746.78
2023-10-09T11:04:09.084Z,96760.97
2023-10-09T11:05:10.818Z,96762.06
2023-10-09T11:06:15.366Z,96759.69
2023-10-09T11:07:16.963Z,96766.94
2023-10-09T11:08:18.442Z,96757.63
2023-10-09T11:09:19.896Z,96763.31
2023-10-09T11:10:21.351Z,96770.84
2023-10-09T11:11:23.448Z,96773.53
2023-10-09T11:12:24.972Z,96766.56
2023-10-09T11:13:26.451Z,96769.56
2023-10-09T11:14:27.904Z,96769.88
2023-10-09T11:15:29.357Z,96769.06
2023-10-09T11:16:30.832Z,96765.13
2023-10-09T11:17:32.358Z,96765.44
2023-10-09T11:18:33.883Z,96765.72
2023-10-09T11:19:35.401Z,96761.50
2023-10-09T11:20:36.872Z,96766.84
2023-10-09T11:21:38.391Z,96769.03
2023-10-09T11:22:39.917Z,96769.03
2023-10-09T11:23:41.423Z,96769.34
2023-10-09T11:24:42.931Z,96775.81
2023-10-09T11:25:44.431Z,96771.53
2023-10-09T11:26:45.927Z,96777.19
2023-10-09T11:27:50.535Z,96765.69
2023-10-09T11:28:52.039Z,96770.56
2023-10-09T11:29:53.564Z,96768.19
2023-10-09T11:30:55.340Z,96772.75
2023-10-09T11:31:56.927Z,96768.47
2023-10-09T11:32:58.436Z,96763.13
2023-10-09T11:33:59.929Z,96756.19
2023-10-09T11:35:01.470Z,96747.38
2023-10-09T11:36:02.964Z,96743.09
2023-10-09T11:37:04.468Z,96750.84
2023-10-09T11:38:06.004Z,96749.75
2023-10-09T11:39:07.495Z,96746.25
2023-10-09T11:40:08.974Z,96744.41
2023-10-09T11:41:10.499Z,96737.97
2023-10-09T11:42:11.972Z,96735.28
2023-10-09T11:43:13.458Z,96733.41
2023-10-09T11:44:15.137Z,96732.00
2023-10-09T11:45:16.914Z,96724.00
2023-10-09T11:46:18.457Z,96714.84
2023-10-09T11:47:20.434Z,96714.53
2023-10-09T11:48:22.586Z,96707.31
2023-10-09T11:49:24.216Z,96712.34
2023-10-09T11:50:25.732Z,96705.88
2023-10-09T11:51:27.221Z,96705.59
2023-10-09T11:52:28.777Z,96701.84
2023-10-09T11:53:30.337Z,96698.81
2023-10-09T11:54:31.812Z,96695.84
2023-10-09T11:55:33.329Z,96705.47
2023-10-09T11:56:34.806Z,96694.75
2023-10-09T11:57:36.375Z,96687.50
2023-10-09T11:58:37.984Z,96682.94
2023-10-09T11:59:39.535Z,96680.75
2023-10-09T12:00:41.201Z,96681.56
2023-10-09T12:01:42.754Z,96673.53
2023-10-09T12:02:44.386Z,96676.19
2023-10-09T12:03:46.001Z,96679.66
2023-10-09T12:04:47.712Z,96682.81
2023-10-09T12:05:49.333Z,96680.91
2023-10-09T12:06:50.828Z,96682.81